Time;durP1;ratioP1;P1;durP2;ratioP2;P2;SDS_P1;SDS_P2;PMS_P1;PMS_P2;Temp;Humidity;BMP_temperature;BMP_pressure;BME280_temperature;BME280_humidity;BME280_pressure;Samples;Min_cycle;Max_cycle;Signal;HPM_P1;HPM_P2
2023/08/25 00:00:51;;;;;;;10.80;7.30;;;;;;;19.98;58.15;100154.94;112135;1246;22882;-79
2023/08/25 00:03:41;;;;;;;10.50;6.90;;;;;;;19.97;58.30;100151.67;112321;1240;23731;-77
2023/08/25 00:06:15;;;;;;;10.90;6.90;;;;;;;19.99;58.28;100149.36;112470;1240;23710;-79
2023/08/25 00:08:46;;;;;;;9.80;6.50;;;;;;;19.95;58.32;100151.45;112794;1240;23593;-78
2023/08/25 00:11:19;;;;;;;8.60;6.20;;;;;;;19.91;58.26;100147.33;112360;1241;21984;-78
2023/08/25 00:13:53;;;;;;;10.10;6.80;;;;;;;19.87;58.41;100144.64;112794;1236;21931;-78
2023/08/25 00:16:29;;;;;;;12.90;6.80;;;;;;;19.88;58.53;100143.70;112539;1240;21941;-78
2023/08/25 00:19:08;;;;;;;10.70;7.40;;;;;;;19.91;58.63;100147.52;112032;1246;23117;-79
2023/08/25 00:21:39;;;;;;;9.70;6.60;;;;;;;19.94;58.52;100154.05;111484;1249;21983;-78
2023/08/25 00:24:10;;;;;;;7.10;6.30;;;;;;;19.95;58.58;100159.08;111480;1249;23754;-78
2023/08/25 00:26:42;;;;;;;9.40;6.40;;;;;;;19.95;58.44;100163.33;111921;1249;23741;-79
2023/08/25 00:29:17;;;;;;;10.60;6.60;;;;;;;19.94;58.63;100165.17;111679;1249;22556;-78
2023/08/25 00:32:01;;;;;;;10.10;6.50;;;;;;;19.95;58.75;100166.10;111659;1244;21964;-78
2023/08/25 00:34:35;;;;;;;10.00;5.90;;;;;;;19.95;58.54;100164.73;111716;1248;22156;-78
2023/08/25 00:37:04;;;;;;;8.80;6.70;;;;;;;19.93;58.51;100160.28;111712;1246;21957;-77
2023/08/25 00:39:39;;;;;;;8.20;6.00;;;;;;;19.91;58.51;100153.40;112103;1241;22797;-78
2023/08/25 00:42:16;;;;;;;11.00;6.80;;;;;;;19.91;58.51;100147.56;112760;1241;23680;-77
2023/08/25 00:44:47;;;;;;;9.90;6.10;;;;;;;19.90;58.52;100141.03;111869;1247;24347;-78
2023/08/25 00:47:18;;;;;;;10.80;6.00;;;;;;;19.92;58.56;100137.04;111396;1251;23711;-78
2023/08/25 00:49:56;;;;;;;12.40;7.30;;;;;;;19.93;58.56;100136.25;111859;1246;21960;-78
2023/08/25 00:52:28;;;;;;;8.30;6.50;;;;;;;19.95;58.60;100140.00;111979;1246;23610;-77
2023/08/25 00:55:03;;;;;;;13.60;7.20;;;;;;;19.94;58.62;100143.59;111653;1246;21964;-77
2023/08/25 00:57:42;;;;;;;15.20;7.90;;;;;;;19.93;58.71;100140.86;111951;1246;21976;-78
2023/08/25 01:00:16;;;;;;;9.70;6.80;;;;;;;19.95;58.68;100134.64;111730;1246;23655;-78
2023/08/25 01:02:46;;;;;;;12.20;7.50;;;;;;;20.00;58.84;100127.23;111866;1245;21963;-77
2023/08/25 01:05:16;;;;;;;9.10;6.00;;;;;;;20.04;58.82;100121.74;112400;1240;21948;-78
2023/08/25 01:07:57;;;;;;;8.90;7.20;;;;;;;20.08;58.78;100115.81;112451;1239;23026;-77
2023/08/25 01:10:55;;;;;;;8.90;6.70;;;;;;;20.10;58.83;100111.91;112749;1239;23781;-77
2023/08/25 01:13:59;;;;;;;11.40;6.40;;;;;;;20.10;58.89;100107.67;112758;1240;22791;-80
2023/08/25 01:16:45;;;;;;;12.40;7.20;;;;;;;20.11;58.81;100104.20;113226;1239;21950;-77
2023/08/25 01:19:53;;;;;;;7.80;6.20;;;;;;;20.13;58.89;100100.48;112260;1244;23705;-77
2023/08/25 01:23:06;;;;;;;10.50;7.40;;;;;;;20.15;58.99;100101.27;112235;1244;23733;-77
2023/08/25 01:25:38;;;;;;;8.30;6.50;;;;;;;20.17;58.95;100095.81;111684;1248;21995;-78
2023/08/25 01:28:07;;;;;;;7.30;6.50;;;;;;;20.19;58.79;100091.20;111664;1249;22030;-78
2023/08/25 01:30:48;;;;;;;13.50;7.70;;;;;;;20.19;58.61;100089.97;111628;1244;22417;-78
2023/08/25 01:33:19;;;;;;;13.70;6.20;;;;;;;20.20;58.71;100085.66;111686;1248;21978;-78
2023/08/25 01:36:33;;;;;;;9.20;6.80;;;;;;;20.21;58.58;100079.91;111972;1247;24051;-78
2023/08/25 01:39:10;;;;;;;10.70;6.90;;;;;;;20.16;58.68;100075.73;111663;1250;21984;-78
2023/08/25 01:41:49;;;;;;;12.50;6.70;;;;;;;20.17;58.79;100074.95;111549;1250;22020;-78
2023/08/25 01:44:21;;;;;;;8.50;5.80;;;;;;;20.21;58.71;100079.05;111657;1250;23623;-76
2023/08/25 01:47:02;;;;;;;9.50;6.10;;;;;;;20.24;58.78;100076.13;111396;1250;22838;-76
2023/08/25 01:49:32;;;;;;;9.70;5.70;;;;;;;20.23;58.47;100072.85;111420;1250;21968;-79
2023/08/25 01:52:02;;;;;;;10.50;5.80;;;;;;;20.24;58.24;100069.09;111386;1250;21999;-78
2023/08/25 01:54:33;;;;;;;;;;;;;;;20.24;58.16;100064.16;111383;1254;21909;-79
2023/08/25 01:57:13;;;;;;;10.70;6.20;;;;;;;20.16;58.49;100067.86;111302;1254;23061;-78
2023/08/25 01:59:44;;;;;;;12.50;5.70;;;;;;;20.18;58.52;100070.25;111400;1252;21971;-82
2023/08/25 02:02:24;;;;;;;9.80;5.90;;;;;;;20.22;58.47;100068.91;111509;1247;23607;-79
2023/08/25 02:04:53;;;;;;;9.90;6.10;;;;;;;20.22;58.27;100062.02;111781;1246;21964;-77
2023/08/25 02:07:23;;;;;;;10.50;6.80;;;;;;;20.23;58.16;100065.27;111430;1251;21971;-80
2023/08/25 02:09:54;;;;;;;9.50;5.60;;;;;;;20.25;58.10;100061.71;111344;1250;23789;-80
2023/08/25 02:12:34;;;;;;;10.50;6.30;;;;;;;20.27;58.16;100056.98;111494;1248;21975;-77
2023/08/25 02:15:04;;;;;;;6.90;5.80;;;;;;;20.30;58.16;100054.09;111667;1248;21996;-77
2023/08/25 02:17:33;;;;;;;9.60;6.80;;;;;;;20.34;58.22;100051.66;112626;1241;22009;-78
2023/08/25 02:20:04;;;;;;;11.20;6.80;;;;;;;20.37;58.10;100047.91;112574;1241;21966;-77
2023/08/25 02:22:33;;;;;;;9.50;6.30;;;;;;;20.36;57.93;100047.45;112378;1241;22202;-77
2023/08/25 02:25:06;;;;;;;10.00;6.50;;;;;;;20.31;57.71;100047.64;112649;1236;22037;-75
2023/08/25 02:27:37;;;;;;;;;;;;;;;20.26;57.75;100040.63;113163;1235;21957;-79
2023/08/25 02:30:07;;;;;;;;;;;;;;;20.13;58.09;100033.27;113237;1235;21953;-79
2023/08/25 02:32:40;;;;;;;9.70;5.90;;;;;;;20.03;58.48;100030.33;113384;1234;22049;-79
2023/08/25 02:35:08;;;;;;;7.50;5.90;;;;;;;20.06;58.37;100024.81;113488;1227;21950;-79
2023/08/25 02:37:59;;;;;;;8.30;6.40;;;;;;;20.08;58.31;100019.70;113109;1235;22955;-79
2023/08/25 02:40:33;;;;;;;8.40;5.80;;;;;;;20.07;58.32;100016.98;113082;1235;21954;-79
2023/08/25 02:43:04;;;;;;;12.70;7.10;;;;;;;20.06;58.46;100013.14;113103;1235;21939;-79
2023/08/25 02:45:36;;;;;;;8.00;6.60;;;;;;;20.06;58.63;100009.23;113116;1234;23570;-79
2023/08/25 02:48:07;;;;;;;11.00;6.40;;;;;;;20.10;58.72;100008.94;113315;1235;21979;-78
2023/08/25 02:50:37;;;;;;;12.90;7.20;;;;;;;20.16;58.67;100008.06;113301;1235;21895;-79
2023/08/25 02:53:05;;;;;;;11.30;6.50;;;;;;;20.20;58.61;100009.70;113235;1235;22138;-78
2023/08/25 02:55:36;;;;;;;8.40;7.10;;;;;;;20.23;58.53;100011.96;113525;1235;22021;-77
2023/08/25 02:58:11;;;;;;;13.10;6.40;;;;;;;20.24;58.44;100006.21;113358;1235;21998;-77
2023/08/25 03:00:39;;;;;;;12.00;7.50;;;;;;;20.26;58.53;100001.09;113167;1235;23778;-77
2023/08/25 03:03:08;;;;;;;9.90;6.80;;;;;;;20.28;58.52;99999.33;113388;1235;21948;-77
2023/08/25 03:05:40;;;;;;;10.50;6.80;;;;;;;20.31;58.65;99993.96;112972;1235;22351;-78
2023/08/25 03:08:21;;;;;;;9.80;6.80;;;;;;;20.32;58.50;99993.17;112551;1241;21906;-78
2023/08/25 03:10:50;;;;;;;14.10;7.40;;;;;;;20.33;58.41;99987.45;112692;1241;23603;-76
2023/08/25 03:13:23;;;;;;;8.80;6.50;;;;;;;20.34;58.56;99985.70;111676;1246;21943;-79
2023/08/25 03:16:01;;;;;;;12.10;7.30;;;;;;;20.37;58.43;99973.81;111293;1251;23243;-77
2023/08/25 03:18:34;;;;;;;9.90;6.60;;;;;;;20.38;58.35;99961.15;111277;1251;22801;-76
2023/08/25 03:21:05;;;;;;;10.00;6.50;;;;;;;20.42;58.18;99970.17;111621;1251;21970;-75
2023/08/25 03:23:37;;;;;;;9.90;7.00;;;;;;;20.44;58.09;99967.25;111167;1252;23038;-76
2023/08/25 03:26:12;;;;;;;9.40;6.20;;;;;;;20.43;58.22;99963.07;111429;1240;22237;-76
2023/08/25 03:28:44;;;;;;;13.00;6.70;;;;;;;20.44;58.06;99969.89;111865;1248;22816;-76
2023/08/25 03:31:15;;;;;;;16.00;7.10;;;;;;;20.45;57.88;99970.34;112066;1242;21968;-75
2023/08/25 03:33:47;;;;;;;8.80;6.90;;;;;;;20.45;58.01;99967.83;112706;1234;23525;-78
2023/08/25 03:36:23;;;;;;;11.10;7.60;;;;;;;20.46;57.98;99971.29;112372;1241;22733;-78
2023/08/25 03:38:53;;;;;;;11.30;7.30;;;;;;;20.46;57.94;99968.09;112475;1241;22024;-77
2023/08/25 03:41:21;;;;;;;14.00;7.80;;;;;;;20.47;58.01;99973.70;112651;1237;22724;-76
2023/08/25 03:43:50;;;;;;;9.50;6.70;;;;;;;20.48;58.03;99976.80;112477;1240;23678;-77
2023/08/25 03:46:26;;;;;;;12.80;7.50;;;;;;;20.49;58.06;99973.89;112753;1241;22732;-78
2023/08/25 03:48:57;;;;;;;11.40;7.30;;;;;;;20.49;58.08;99975.83;112220;1244;23694;-78
2023/08/25 03:51:32;;;;;;;9.00;7.30;;;;;;;20.50;58.10;99977.14;112183;1244;23648;-80
2023/08/25 03:54:06;;;;;;;14.70;8.50;;;;;;;20.51;58.18;99980.80;112118;1240;21942;-78
2023/08/25 03:56:39;;;;;;;11.20;7.50;;;;;;;20.53;58.20;99988.39;112749;1239;23712;-77
2023/08/25 03:59:11;;;;;;;12.50;8.60;;;;;;;20.54;58.36;99989.89;112413;1240;21936;-77
2023/08/25 04:01:45;;;;;;;8.80;7.00;;;;;;;20.57;58.52;99989.83;113080;1239;22791;-79
2023/08/25 04:04:17;;;;;;;10.20;7.20;;;;;;;20.58;58.57;99992.36;112717;1240;22578;-78
2023/08/25 04:06:49;;;;;;;14.80;9.30;;;;;;;20.58;58.62;99990.60;112725;1239;21947;-76
2023/08/25 04:09:20;;;;;;;10.60;8.40;;;;;;;20.59;58.93;99990.39;112522;1239;21961;-78
2023/08/25 04:11:53;;;;;;;10.00;8.50;;;;;;;20.60;59.17;99992.73;112301;1240;22608;-76
2023/08/25 04:14:27;;;;;;;14.00;7.90;;;;;;;20.62;59.46;99988.11;112182;1242;21958;-76
2023/08/25 04:17:04;;;;;;;14.20;8.30;;;;;;;20.60;59.73;99986.20;111898;1248;23629;-76
2023/08/25 04:19:35;;;;;;;11.50;8.40;;;;;;;20.64;60.11;99984.98;111933;1248;23718;-77
2023/08/25 04:22:08;;;;;;;11.00;8.70;;;;;;;20.61;60.22;99977.27;111665;1248;22886;-77
2023/08/25 04:24:40;;;;;;;12.00;8.40;;;;;;;20.61;60.42;99974.45;111689;1247;21963;-76
2023/08/25 04:27:12;;;;;;;12.40;8.30;;;;;;;20.60;60.57;99961.45;111701;1248;21995;-77
2023/08/25 04:29:44;;;;;;;12.40;8.60;;;;;;;20.60;60.57;99967.80;111599;1248;21975;-79
2023/08/25 04:32:15;;;;;;;10.90;8.60;;;;;;;20.54;60.80;99963.02;111298;1251;23591;-78
2023/08/25 04:34:46;;;;;;;11.60;8.60;;;;;;;20.48;60.65;99962.84;111364;1247;23432;-78
2023/08/25 04:37:26;;;;;;;11.30;9.00;;;;;;;20.43;60.97;99955.79;111802;1240;22172;-78
2023/08/25 04:39:55;;;;;;;9.30;8.10;;;;;;;20.40;61.25;99954.14;112480;1240;22400;-76
2023/08/25 04:42:28;;;;;;;13.60;8.50;;;;;;;20.41;61.55;99947.46;112492;1240;23700;-77
2023/08/25 04:44:57;;;;;;;11.20;8.50;;;;;;;20.46;61.79;99944.11;112644;1240;24368;-79
2023/08/25 04:47:32;;;;;;;12.40;8.00;;;;;;;20.42;61.69;99943.39;112603;1235;23680;-79
2023/08/25 04:50:13;;;;;;;;;;;;;;;20.32;61.76;99940.16;113194;1235;22136;-78
2023/08/25 04:52:46;;;;;;;11.30;8.80;;;;;;;20.15;62.16;99930.62;112505;1241;21959;-77
2023/08/25 04:55:20;;;;;;;10.10;7.50;;;;;;;20.10;62.22;99931.95;112404;1241;23565;-78
2023/08/25 04:57:49;;;;;;;12.60;8.70;;;;;;;20.07;62.23;99929.69;112358;1241;23610;-77
2023/08/25 05:00:19;;;;;;;9.50;8.60;;;;;;;20.08;62.41;99921.52;112113;1241;23021;-78
2023/08/25 05:02:49;;;;;;;9.90;8.90;;;;;;;20.10;62.65;99915.15;111944;1247;22730;-78
2023/08/25 05:05:20;;;;;;;11.90;8.80;;;;;;;20.15;62.90;99910.90;111717;1247;21954;-78
2023/08/25 05:07:52;;;;;;;9.40;8.40;;;;;;;20.15;62.92;99914.70;111773;1247;21957;-79
2023/08/25 05:10:26;;;;;;;12.40;9.50;;;;;;;20.12;62.82;99913.40;111853;1241;22001;-78
2023/08/25 05:12:57;;;;;;;13.30;9.20;;;;;;;20.07;62.98;99909.58;112155;1241;23011;-79
2023/08/25 05:15:30;;;;;;;11.20;8.80;;;;;;;20.06;63.32;99905.45;112730;1241;21975;-79
2023/08/25 05:17:58;;;;;;;;;;;;;;;20.08;63.48;99903.47;112612;1241;21931;-78
2023/08/25 05:20:32;;;;;;;8.60;7.80;;;;;;;20.01;63.82;99910.27;112460;1235;21959;-77
2023/08/25 05:23:06;;;;;;;12.80;8.80;;;;;;;19.99;63.77;99905.98;113136;1234;22172;-77
2023/08/25 05:25:37;;;;;;;11.40;8.70;;;;;;;20.01;63.86;99896.68;113152;1234;22163;-78
2023/08/25 05:28:09;;;;;;;9.80;7.50;;;;;;;20.03;63.93;99895.44;113322;1235;21946;-79
2023/08/25 05:30:46;;;;;;;8.90;8.00;;;;;;;20.04;63.82;99891.59;112509;1241;21964;-77
2023/08/25 05:33:15;;;;;;;10.80;8.20;;;;;;;20.06;63.87;99882.32;112581;1241;21972;-79
2023/08/25 05:36:06;;;;;;;10.80;9.20;;;;;;;20.09;64.09;99874.77;112101;1246;21971;-79
2023/08/25 05:38:36;;;;;;;12.90;8.60;;;;;;;20.16;64.22;99876.10;111612;1251;22546;-79
2023/08/25 05:41:08;;;;;;;9.80;8.40;;;;;;;20.24;64.05;99880.07;111440;1251;22236;-77
2023/08/25 05:43:47;;;;;;;11.10;9.00;;;;;;;20.24;64.06;99886.52;111729;1251;21979;-79
2023/08/25 05:46:17;;;;;;;13.80;9.50;;;;;;;20.23;64.13;99894.59;111075;1255;22005;-77
2023/08/25 05:49:00;;;;;;;11.60;9.10;;;;;;;20.22;64.03;99895.71;111457;1251;22009;-79
2023/08/25 05:51:35;;;;;;;9.90;8.30;;;;;;;20.21;64.23;99893.37;111155;1255;21993;-78
2023/08/25 05:58:13;;;;;;;14.10;10.00;;;;;;;20.24;64.49;99874.08;111708;1250;23081;-78
2023/08/25 06:00:46;;;;;;;15.90;11.50;;;;;;;20.34;64.72;99873.18;111668;1250;22300;-79
2023/08/25 06:03:25;;;;;;;15.80;11.90;;;;;;;20.47;64.85;99869.61;111666;1250;21957;-78
2023/08/25 06:06:01;;;;;;;11.30;9.80;;;;;;;20.54;64.63;99865.95;111937;1246;22406;-80
2023/08/25 06:08:31;;;;;;;13.60;9.40;;;;;;;20.56;64.36;99864.95;111950;1246;23287;-79
2023/08/25 06:11:09;;;;;;;12.90;9.40;;;;;;;20.56;64.19;99861.06;111747;1245;24379;-79
2023/08/25 06:13:55;;;;;;;12.00;8.10;;;;;;;20.58;64.20;99864.78;112010;1248;23691;-77
2023/08/25 06:16:54;;;;;;;10.20;9.00;;;;;;;20.54;64.01;99865.83;111766;1248;21961;-76
2023/08/25 06:19:48;;;;;;;10.20;8.50;;;;;;;20.49;63.89;99867.44;111940;1248;22976;-77
2023/08/25 06:22:41;;;;;;;10.10;8.00;;;;;;;20.47;63.74;99866.40;111677;1248;22319;-78
2023/08/25 06:25:29;;;;;;;16.10;8.30;;;;;;;20.47;63.81;99864.81;111688;1248;23162;-78
2023/08/25 06:28:15;;;;;;;13.40;9.10;;;;;;;20.50;64.00;99863.48;111992;1241;23655;-78
2023/08/25 06:31:10;;;;;;;9.50;8.20;;;;;;;20.52;63.79;99858.54;113175;1234;21939;-77
2023/08/25 06:33:57;;;;;;;9.60;8.60;;;;;;;20.56;63.78;99855.00;113520;1233;23713;-80
2023/08/25 06:36:43;;;;;;;11.10;8.80;;;;;;;20.64;63.79;99854.69;113312;1235;24271;-79
2023/08/25 06:39:34;;;;;;;11.30;9.30;;;;;;;20.72;63.59;99849.96;113206;1234;22708;-78
2023/08/25 06:42:14;;;;;;;9.20;8.20;;;;;;;20.79;63.40;99851.63;112887;1234;21987;-78
2023/08/25 06:45:03;;;;;;;11.00;9.40;;;;;;;20.85;63.44;99843.63;113459;1234;21956;-79
2023/08/25 06:47:58;;;;;;;11.50;8.80;;;;;;;20.98;63.55;99843.04;113417;1234;21951;-78
2023/08/25 06:50:52;;;;;;;15.50;9.50;;;;;;;21.10;63.12;99849.06;113212;1235;23033;-78
2023/08/25 06:53:33;;;;;;;8.50;7.70;;;;;;;21.09;62.61;99843.28;112433;1241;21946;-82
2023/08/25 06:56:06;;;;;;;10.20;8.30;;;;;;;21.11;62.28;99844.20;112622;1241;22703;-79
2023/08/25 06:58:39;;;;;;;14.50;9.80;;;;;;;21.14;62.10;99849.88;112760;1241;23690;-81
2023/08/25 07:01:25;;;;;;;12.60;9.70;;;;;;;21.12;62.23;99846.60;112310;1246;22399;-80
2023/08/25 07:04:04;;;;;;;16.10;9.50;;;;;;;21.11;62.39;99842.91;112254;1246;21955;-81
2023/08/25 07:06:39;;;;;;;15.20;10.60;;;;;;;21.16;62.55;99845.35;112197;1246;21991;-80
2023/08/25 07:09:14;;;;;;;12.50;8.90;;;;;;;21.24;62.92;99847.06;111619;1251;22011;-79
2023/08/25 07:11:49;;;;;;;13.50;9.40;;;;;;;21.38;63.00;99847.70;111604;1250;22793;-81
2023/08/25 07:14:20;;;;;;;11.40;9.40;;;;;;;21.53;62.87;99844.06;111840;1250;21981;-80
2023/08/25 07:16:52;;;;;;;11.40;10.10;;;;;;;21.65;62.69;99842.86;111862;1251;23056;-79
2023/08/25 07:19:22;;;;;;;13.80;9.00;;;;;;;21.73;62.37;99845.23;111730;1245;492360;-79
2023/08/25 07:21:51;;;;;;;14.60;10.30;;;;;;;21.86;62.27;99846.02;111945;1250;21988;-81
2023/08/25 07:24:22;;;;;;;10.20;9.20;;;;;;;22.02;62.21;99846.34;111694;1249;21981;-80
2023/08/25 07:26:54;;;;;;;12.30;9.40;;;;;;;22.18;61.36;99841.42;111833;1244;21960;-78
2023/08/25 07:29:35;;;;;;;12.60;10.20;;;;;;;22.34;61.02;99834.47;112061;1244;22714;-79
2023/08/25 07:32:16;;;;;;;9.40;8.40;;;;;;;22.83;61.56;99836.32;111704;1248;23607;-78
2023/08/25 07:34:48;;;;;;;26.10;8.30;;;;;;;23.49;60.35;99836.88;111287;1254;21964;-80
2023/08/25 07:37:25;;;;;;;14.30;9.20;;;;;;;24.16;58.53;99833.33;111247;1255;21981;-80
2023/08/25 07:39:57;;;;;;;13.60;7.80;;;;;;;24.84;55.76;99827.05;111426;1251;21969;-77
2023/08/25 07:42:27;;;;;;;14.70;8.10;;;;;;;25.39;53.86;99830.59;111345;1251;21965;-77
2023/08/25 07:44:56;;;;;;;10.00;8.40;;;;;;;25.84;52.03;99833.88;111291;1251;23050;-78
2023/08/25 07:47:29;;;;;;;9.20;7.60;;;;;;;26.18;50.31;99842.63;111388;1251;22089;-78
2023/08/25 07:49:58;;;;;;;9.90;7.40;;;;;;;26.52;49.20;99843.27;111459;1246;22110;-78
2023/08/25 07:52:41;;;;;;;10.90;8.00;;;;;;;26.92;48.46;99843.43;112128;1240;23118;-77
2023/08/25 07:55:12;;;;;;;7.80;6.90;;;;;;;27.12;46.54;99835.85;112465;1235;22534;-77
2023/08/25 07:57:51;;;;;;;11.80;7.70;;;;;;;27.28;46.87;99832.91;112774;1239;22005;-77
2023/08/25 08:00:27;;;;;;;9.90;8.00;;;;;;;27.38;45.93;99824.33;112741;1239;21984;-76
2023/08/25 08:03:14;;;;;;;8.60;7.50;;;;;;;27.33;46.16;99822.39;112800;1239;21954;-77
2023/08/25 08:05:49;;;;;;;11.80;7.70;;;;;;;27.49;46.12;99823.93;112833;1239;22964;-78
2023/08/25 08:08:18;;;;;;;12.70;7.50;;;;;;;27.57;45.88;99820.38;112786;1239;21999;-77
2023/08/25 08:10:53;;;;;;;10.50;7.60;;;;;;;27.68;45.83;99817.39;112751;1239;21930;-77
2023/08/25 08:13:30;;;;;;;9.80;8.70;;;;;;;27.86;45.76;99814.65;112895;1239;21948;-76
2023/08/25 08:16:05;;;;;;;11.90;7.80;;;;;;;28.16;45.37;99811.52;113037;1239;21988;-78
2023/08/25 08:18:52;;;;;;;12.10;7.40;;;;;;;28.47;44.70;99810.52;112432;1239;22059;-78
2023/08/25 08:21:31;;;;;;;9.40;7.70;;;;;;;28.81;44.46;99815.19;112806;1234;22009;-77
2023/08/25 08:24:05;;;;;;;9.20;7.80;;;;;;;29.10;43.48;99819.73;112434;1241;23612;-77
2023/08/25 08:26:33;;;;;;;11.80;8.00;;;;;;;29.33;43.08;99821.98;112442;1241;22991;-77
2023/08/25 08:29:05;;;;;;;9.20;7.10;;;;;;;29.61;42.79;99822.38;112396;1241;21912;-78
2023/08/25 08:31:40;;;;;;;16.50;8.80;;;;;;;29.94;42.78;99821.14;112366;1241;21910;-77
2023/08/25 08:34:11;;;;;;;9.40;7.20;;;;;;;30.44;42.43;99820.85;111722;1246;21999;-77
2023/08/25 08:36:47;;;;;;;10.40;7.30;;;;;;;30.94;41.62;99821.14;111897;1246;23751;-77
2023/08/25 08:39:21;;;;;;;;;;;;;;;31.29;40.39;99822.92;111720;1246;23572;-76
2023/08/25 08:41:52;;;;;;;11.50;7.20;;;;;;;31.37;39.54;99822.32;112220;1241;21920;-76
2023/08/25 08:44:22;;;;;;;10.00;6.80;;;;;;;31.59;40.23;99823.46;112471;1241;23108;-75
2023/08/25 08:46:53;;;;;;;7.60;6.70;;;;;;;32.02;40.44;99823.76;111925;1246;22811;-76
2023/08/25 08:49:34;;;;;;;8.00;7.20;;;;;;;32.40;39.55;99818.98;111482;1251;21934;-75
2023/08/25 08:52:13;;;;;;;17.40;8.20;;;;;;;32.82;38.38;99815.03;111287;1250;22981;-75
2023/08/25 08:54:46;;;;;;;9.70;7.00;;;;;;;32.92;37.01;99813.48;111492;1251;21969;-77
2023/08/25 08:57:24;;;;;;;11.40;6.30;;;;;;;32.95;37.05;99810.64;111417;1253;21969;-77
2023/08/25 08:59:58;;;;;;;12.30;7.30;;;;;;;33.22;37.60;99813.88;110998;1253;22038;-76
2023/08/25 09:02:53;;;;;;;8.80;6.70;;;;;;;33.45;36.57;99815.08;111281;1253;23588;-78
2023/08/25 09:05:29;;;;;;;8.70;6.20;;;;;;;33.44;35.98;99813.25;111567;1249;21956;-78
2023/08/25 09:08:08;;;;;;;13.50;6.40;;;;;;;33.60;36.60;99810.54;111761;1245;21956;-79
2023/08/25 09:10:41;;;;;;;8.00;5.80;;;;;;;33.84;36.15;99806.63;112515;1239;21948;-77
2023/08/25 09:13:12;;;;;;;10.80;6.60;;;;;;;34.14;36.01;99807.06;112912;1239;24290;-77
2023/08/25 09:15:49;;;;;;;9.20;6.60;;;;;;;34.32;34.96;99802.84;112288;1244;23706;-77
2023/08/25 09:18:32;;;;;;;12.20;6.60;;;;;;;34.52;35.01;99800.52;112436;1244;22081;-78
2023/08/25 09:21:04;;;;;;;12.80;7.00;;;;;;;34.68;34.48;99801.51;112284;1244;21975;-77
2023/08/25 09:23:33;;;;;;;12.50;6.40;;;;;;;34.78;34.10;99796.00;111638;1250;21961;-77
2023/08/25 09:26:05;;;;;;;16.90;6.90;;;;;;;34.71;33.50;99795.89;111289;1253;21973;-77
2023/08/25 09:28:38;;;;;;;10.90;6.30;;;;;;;34.69;34.21;99796.20;111224;1255;22878;-77
2023/08/25 09:31:19;;;;;;;10.40;7.10;;;;;;;34.72;33.61;99794.99;111171;1255;21978;-78
2023/08/25 09:34:03;;;;;;;24.10;21.50;;;;;;;34.66;34.09;99791.52;110766;1262;22003;-76
2023/08/25 09:36:33;;;;;;;22.20;15.20;;;;;;;34.89;34.53;99789.23;110007;1266;23642;-77
2023/08/25 09:39:07;;;;;;;12.70;7.90;;;;;;;35.25;33.62;99794.59;109777;1269;22013;-77
2023/08/25 09:41:42;;;;;;;8.70;6.10;;;;;;;35.25;32.68;99798.06;110329;1261;22102;-79
2023/08/25 09:44:21;;;;;;;7.30;5.90;;;;;;;35.21;33.16;99796.78;110412;1264;24354;-77
2023/08/25 09:46:51;;;;;;;8.90;5.90;;;;;;;35.28;33.27;99799.14;110230;1262;22054;-77
2023/08/25 09:49:22;;;;;;;7.90;6.20;;;;;;;35.37;33.24;99795.70;110745;1261;21976;-79
2023/08/25 09:52:05;;;;;;;12.00;5.70;;;;;;;35.61;33.39;99794.09;110896;1254;21999;-78
2023/08/25 09:54:54;;;;;;;7.80;5.50;;;;;;;35.81;32.59;99794.57;111489;1249;22772;-76
2023/08/25 09:57:28;;;;;;;10.10;5.30;;;;;;;35.88;31.98;99790.34;112197;1246;23294;-79
2023/08/25 09:59:59;;;;;;;7.90;4.70;;;;;;;35.87;32.07;99790.40;112506;1247;21954;-79
2023/08/25 10:02:32;;;;;;;10.80;5.40;;;;;;;36.05;32.12;99794.39;112278;1243;21964;-79
2023/08/25 10:05:09;;;;;;;12.40;5.60;;;;;;;36.12;31.37;99789.73;112766;1239;23781;-79
2023/08/25 10:07:48;;;;;;;8.90;5.30;;;;;;;35.97;30.80;99777.59;113056;1239;23741;-79
2023/08/25 10:10:21;;;;;;;10.00;4.60;;;;;;;35.81;31.48;99776.52;112910;1239;21944;-79
2023/08/25 10:13:06;;;;;;;10.20;5.10;;;;;;;35.86;31.28;99776.55;112822;1239;22005;-80
2023/08/25 10:15:47;;;;;;;;;;;;;;;35.93;31.30;99778.98;112947;1235;22289;-81
2023/08/25 10:18:22;;;;;;;11.10;4.40;;;;;;;36.01;31.06;99786.36;113604;1234;21941;-79
2023/08/25 10:21:12;;;;;;;12.80;5.20;;;;;;;36.16;31.10;99793.16;113618;1235;21960;-81
2023/08/25 10:24:02;;;;;;;10.70;4.70;;;;;;;36.42;30.93;99790.59;113427;1235;21950;-80
2023/08/25 10:26:51;;;;;;;9.30;4.20;;;;;;;36.52;30.33;99787.36;113705;1235;23041;-78
2023/08/25 10:29:34;;;;;;;8.70;4.50;;;;;;;36.62;30.05;99791.61;113672;1234;22054;-78
2023/08/25 10:32:19;;;;;;;7.30;4.80;;;;;;;36.56;29.39;99785.14;113898;1235;22030;-79
2023/08/25 10:34:57;;;;;;;6.80;4.40;;;;;;;36.47;29.48;99776.17;113621;1235;23685;-78
2023/08/25 10:37:30;;;;;;;7.30;4.50;;;;;;;36.44;29.99;99773.08;113415;1235;23581;-78
2023/08/25 10:40:12;;;;;;;8.70;3.80;;;;;;;36.48;29.87;99772.02;113578;1235;22017;-80
2023/08/25 10:42:45;;;;;;;6.40;4.00;;;;;;;36.20;28.86;99769.65;113428;1234;23094;-80
2023/08/25 10:45:25;;;;;;;6.50;4.70;;;;;;;35.95;29.74;99774.55;113774;1234;23716;-79
2023/08/25 10:47:58;;;;;;;9.90;4.30;;;;;;;35.75;30.15;99774.66;113544;1234;23571;-79
2023/08/25 10:50:44;;;;;;;10.90;4.10;;;;;;;35.70;30.83;99775.59;112983;1239;22438;-80
2023/08/25 10:53:50;;;;;;;12.00;4.30;;;;;;;35.67;31.02;99776.55;112305;1246;21975;-79
2023/08/25 10:56:21;;;;;;;11.50;4.90;;;;;;;35.66;31.33;99775.69;112422;1246;22569;-79
2023/08/25 10:59:10;;;;;;;8.50;5.00;;;;;;;35.60;31.22;99776.21;111734;1251;21942;-80
2023/08/25 11:02:07;;;;;;;7.70;4.30;;;;;;;35.44;30.82;99776.55;111927;1249;21970;-79
2023/08/25 11:04:45;;;;;;;5.00;3.70;;;;;;;35.24;30.93;99778.41;111467;1250;21957;-79
2023/08/25 11:08:02;;;;;;;9.80;4.00;;;;;;;35.13;30.91;99778.75;111448;1250;21964;-80
2023/08/25 11:10:42;;;;;;;7.20;3.90;;;;;;;34.80;30.94;99777.05;111961;1241;22126;-78
2023/08/25 11:13:56;;;;;;;7.20;3.90;;;;;;;34.57;31.30;99782.00;112761;1241;21945;-81
2023/08/25 11:16:51;;;;;;;6.70;3.80;;;;;;;34.29;31.11;99784.56;112795;1235;21971;-82
2023/08/25 11:19:26;;;;;;;13.60;3.50;;;;;;;34.10;31.43;99783.91;113140;1234;23001;-80
2023/08/25 11:22:15;;;;;;;4.40;3.40;;;;;;;33.91;31.56;99779.66;113182;1235;21938;-78
2023/08/25 11:24:57;;;;;;;6.30;3.00;;;;;;;33.66;31.90;99771.70;113445;1235;21960;-80
2023/08/25 11:28:03;;;;;;;7.20;3.50;;;;;;;33.48;32.23;99771.69;113312;1235;23043;-80
2023/08/25 11:30:56;;;;;;;4.40;3.50;;;;;;;33.35;32.58;99775.39;113449;1235;21976;-81
2023/08/25 11:33:37;;;;;;;10.40;4.50;;;;;;;33.26;32.69;99780.20;113562;1231;21939;-79
2023/08/25 11:36:19;;;;;;;10.30;4.20;;;;;;;33.18;33.06;99785.42;113427;1235;22014;-81
2023/08/25 11:38:52;;;;;;;8.50;4.00;;;;;;;33.14;33.45;99789.16;112539;1241;21963;-79
2023/08/25 11:41:41;;;;;;;7.90;3.70;;;;;;;33.07;33.65;99789.81;112414;1241;23084;-81
2023/08/25 11:44:17;;;;;;;4.20;3.70;;;;;;;32.97;33.72;99785.08;112794;1241;22130;-79
2023/08/25 11:46:49;;;;;;;9.20;4.50;;;;;;;32.93;33.81;99786.83;112521;1241;21964;-80
2023/08/25 11:49:21;;;;;;;15.00;5.00;;;;;;;32.90;34.12;99785.34;112726;1241;23030;-82
2023/08/25 11:51:53;;;;;;;10.20;3.80;;;;;;;32.85;34.07;99787.63;112608;1241;23730;-81
2023/08/25 11:54:22;;;;;;;5.60;3.90;;;;;;;32.78;34.30;99794.65;112854;1241;23011;-79
2023/08/25 11:57:26;;;;;;;6.60;4.10;;;;;;;32.71;34.52;99795.48;113328;1234;22841;-80
2023/08/25 11:59:59;;;;;;;8.70;4.00;;;;;;;32.69;34.78;99791.63;113406;1235;23000;-80
2023/08/25 12:02:57;;;;;;;18.70;4.70;;;;;;;32.68;34.98;99788.64;113370;1234;21941;-79
2023/08/25 12:06:38;;;;;;;6.30;3.30;;;;;;;32.61;34.70;99791.88;113319;1234;22177;-80
2023/08/25 12:12:56;;;;;;;;;;;;;;;;;;;;;
2023/08/25 12:15:52;;;;;;;10.50;3.80;;;;;;;32.45;34.47;99779.30;113437;1234;23048;-80